Time;durP1;ratioP1;P1;durP2;ratioP2;P2;SDS_P1;SDS_P2;PMS_P1;PMS_P2;Temp;Humidity;BMP_temperature;BMP_pressure;BME280_temperature;BME280_humidity;BME280_pressure;Samples;Min_cycle;Max_cycle;Signal;HPM_P1;HPM_P2
2023/12/04 00:02:25;;;;;;;10.45;5.03;;;7.30;99.90;;;;;;6229880;28;20054;-82
2023/12/04 00:05:27;;;;;;;11.07;5.10;;;7.30;99.90;;;;;;6248672;28;20050;-82
2023/12/04 00:08:28;;;;;;;15.48;5.18;;;7.20;99.90;;;;;;6269874;28;20544;-81
2023/12/04 00:11:30;;;;;;;12.30;5.13;;;7.20;99.90;;;;;;6233793;28;20140;-81
2023/12/04 00:14:33;;;;;;;14.43;5.10;;;7.20;99.90;;;;;;6265172;28;20110;-80
2023/12/04 00:17:39;;;;;;;12.18;5.47;;;7.10;99.90;;;;;;6244228;28;20059;-82
2023/12/04 00:20:41;;;;;;;12.80;5.80;;;7.00;99.90;;;;;;6238320;28;20508;-81
2023/12/04 00:23:42;;;;;;;13.85;5.40;;;7.00;99.90;;;;;;6267693;28;20566;-81
2023/12/04 00:26:44;;;;;;;14.63;5.65;;;7.00;99.90;;;;;;6243782;28;20056;-83
2023/12/04 00:29:46;;;;;;;15.68;5.75;;;7.00;99.90;;;;;;6260790;28;20568;-82
2023/12/04 00:32:47;;;;;;;15.02;6.18;;;6.90;99.90;;;;;;6240462;28;20073;-81
2023/12/04 00:35:49;;;;;;;12.40;5.78;;;6.90;99.90;;;;;;6274520;28;20053;-82
2023/12/04 00:38:51;;;;;;;14.90;5.32;;;6.80;99.90;;;;;;6246667;28;20398;-82
2023/12/04 00:41:52;;;;;;;14.90;5.50;;;6.70;99.90;;;;;;6271736;28;20049;-81
2023/12/04 00:44:54;;;;;;;13.57;5.60;;;6.70;99.90;;;;;;6245659;28;20064;-81
2023/12/04 00:47:55;;;;;;;15.98;5.68;;;6.70;99.90;;;;;;6272332;28;20141;-81
2023/12/04 00:50:57;;;;;;;16.80;5.22;;;6.70;99.90;;;;;;6247748;28;20060;-81
2023/12/04 00:53:58;;;;;;;10.48;4.93;;;6.50;99.90;;;;;;6271888;28;20056;-81
2023/12/04 00:57:00;;;;;;;10.75;4.88;;;6.60;99.90;;;;;;6246550;28;20068;-81
2023/12/04 01:00:02;;;;;;;11.57;4.90;;;6.60;99.90;;;;;;6242981;28;20046;-81
2023/12/04 01:03:04;;;;;;;13.07;4.93;;;6.50;99.90;;;;;;6269692;28;20057;-81
2023/12/04 01:06:05;;;;;;;13.25;4.57;;;6.50;99.90;;;;;;6246419;28;20485;-80
2023/12/04 01:09:07;;;;;;;12.75;5.22;;;6.50;99.90;;;;;;6267256;28;20452;-81
2023/12/04 01:12:09;;;;;;;8.57;4.22;;;6.50;99.90;;;;;;6271162;28;20053;-81
2023/12/04 01:15:10;;;;;;;12.57;4.57;;;6.40;99.90;;;;;;6245959;28;20425;-81
2023/12/04 01:18:12;;;;;;;12.45;4.75;;;6.50;99.90;;;;;;6252534;28;20053;-81
2023/12/04 01:21:14;;;;;;;8.82;4.18;;;6.40;99.90;;;;;;6269358;28;20146;-81
2023/12/04 01:24:15;;;;;;;13.68;4.78;;;6.40;99.90;;;;;;6247274;28;20504;-81
2023/12/04 01:27:17;;;;;;;10.80;4.03;;;6.40;99.90;;;;;;6266941;28;20059;-82
2023/12/04 01:30:19;;;;;;;10.57;4.28;;;6.40;99.90;;;;;;6268828;28;20052;-82
2023/12/04 01:33:20;;;;;;;11.77;4.07;;;6.30;99.90;;;;;;6242164;28;20079;-80
2023/12/04 01:36:22;;;;;;;12.80;4.28;;;6.30;99.90;;;;;;6269600;28;20511;-80
2023/12/04 01:39:24;;;;;;;11.20;4.55;;;6.30;99.90;;;;;;6228145;28;20057;-81
2023/12/04 01:42:25;;;;;;;12.23;3.83;;;6.30;99.90;;;;;;6266321;28;20063;-80
2023/12/04 01:45:27;;;;;;;11.45;3.80;;;6.30;99.90;;;;;;6244138;28;20053;-80
2023/12/04 01:48:29;;;;;;;10.75;3.70;;;6.20;99.90;;;;;;6222314;28;20132;-79
2023/12/04 01:51:32;;;;;;;10.52;4.00;;;6.20;99.90;;;;;;6270116;28;20067;-81
2023/12/04 01:54:33;;;;;;;12.50;4.15;;;6.20;99.90;;;;;;6245262;28;20437;-81
2023/12/04 01:57:35;;;;;;;12.82;3.72;;;6.20;99.90;;;;;;6250534;28;20528;-80
2023/12/04 02:00:37;;;;;;;8.75;3.42;;;6.10;99.90;;;;;;6241125;28;20154;-80
2023/12/04 02:03:38;;;;;;;9.23;3.75;;;6.10;99.90;;;;;;6221635;28;20061;-81
2023/12/04 02:06:40;;;;;;;8.73;3.22;;;6.10;99.90;;;;;;6245114;28;20546;-80
2023/12/04 02:09:42;;;;;;;10.02;3.75;;;6.10;99.90;;;;;;6269228;28;20061;-81
2023/12/04 02:12:44;;;;;;;8.50;3.42;;;6.10;99.90;;;;;;6246966;28;20175;-81
2023/12/04 02:15:45;;;;;;;11.15;3.50;;;6.00;99.90;;;;;;6259142;28;20050;-80
2023/12/04 02:18:47;;;;;;;9.23;3.25;;;6.00;99.90;;;;;;6236588;28;20834;-80
2023/12/04 02:21:49;;;;;;;7.78;3.20;;;6.00;99.90;;;;;;6269146;28;20103;-80
2023/12/04 02:24:50;;;;;;;11.85;3.10;;;6.00;99.90;;;;;;6233842;28;20520;-79
2023/12/04 02:27:52;;;;;;;7.53;2.80;;;5.90;99.90;;;;;;6261608;28;20046;-80
2023/12/04 02:30:54;;;;;;;10.82;3.17;;;5.90;99.90;;;;;;6242471;28;20077;-81
2023/12/04 02:33:56;;;;;;;9.77;3.03;;;6.00;99.90;;;;;;6244935;28;21774;-81
2023/12/04 02:36:57;;;;;;;6.40;2.60;;;5.90;99.90;;;;;;6269467;28;20064;-80
2023/12/04 02:39:59;;;;;;;7.35;2.70;;;5.90;99.90;;;;;;6245461;28;20060;-80
2023/12/04 02:43:01;;;;;;;8.05;2.60;;;6.00;99.90;;;;;;6262031;28;20128;-80
2023/12/04 02:46:02;;;;;;;7.57;2.80;;;6.00;99.90;;;;;;6243820;28;20508;-80
2023/12/04 02:49:04;;;;;;;9.25;2.50;;;6.00;99.90;;;;;;6267974;28;20511;-81
2023/12/04 02:52:06;;;;;;;9.35;2.60;;;6.00;99.90;;;;;;6244812;28;20049;-80
2023/12/04 02:55:07;;;;;;;6.40;2.25;;;6.00;99.90;;;;;;6264365;28;20602;-81
2023/12/04 02:58:09;;;;;;;10.02;2.50;;;6.00;99.90;;;;;;6248863;28;20144;-80
2023/12/04 03:01:11;;;;;;;6.25;2.45;;;6.10;99.90;;;;;;6267119;28;20068;-81
2023/12/04 03:04:12;;;;;;;6.25;1.98;;;6.00;99.90;;;;;;6225893;28;20058;-80
2023/12/04 03:07:14;;;;;;;8.23;2.33;;;6.10;99.90;;;;;;6257824;28;20048;-80
2023/12/04 03:10:16;;;;;;;7.20;2.03;;;6.10;99.90;;;;;;6268404;28;20053;-80
2023/12/04 03:13:17;;;;;;;8.55;2.08;;;6.20;99.90;;;;;;6249224;28;20064;-81
2023/12/04 03:16:19;;;;;;;7.90;2.00;;;6.10;99.90;;;;;;6243669;28;20060;-80
2023/12/04 03:19:20;;;;;;;6.13;1.98;;;6.20;99.90;;;;;;6268554;28;20405;-80
2023/12/04 03:22:22;;;;;;;6.28;2.00;;;6.20;99.90;;;;;;6242601;28;20770;-80
2023/12/04 03:25:24;;;;;;;5.28;2.25;;;6.20;99.90;;;;;;6267700;28;20493;-80
2023/12/04 03:28:25;;;;;;;6.43;1.85;;;6.20;99.90;;;;;;6249638;28;20123;-80
2023/12/04 03:31:28;;;;;;;4.63;1.80;;;6.20;99.90;;;;;;6235717;28;20422;-80
2023/12/04 03:34:30;;;;;;;8.98;2.10;;;6.20;99.90;;;;;;6266280;28;20404;-80
2023/12/04 03:37:32;;;;;;;5.72;1.90;;;6.20;99.90;;;;;;6244210;28;20576;-80
2023/12/04 03:40:34;;;;;;;4.10;1.52;;;6.20;99.90;;;;;;6264007;28;20535;-80
2023/12/04 03:43:35;;;;;;;4.32;1.58;;;6.20;99.90;;;;;;6250080;28;20048;-80
2023/12/04 03:46:37;;;;;;;3.78;1.65;;;6.20;99.90;;;;;;6244379;28;20057;-81
2023/12/04 03:49:38;;;;;;;7.22;1.83;;;6.30;99.90;;;;;;6257634;28;20509;-79
2023/12/04 03:52:41;;;;;;;5.65;1.77;;;6.30;99.90;;;;;;6267295;28;20048;-81
2023/12/04 03:55:42;;;;;;;6.55;1.90;;;6.30;99.90;;;;;;6250839;28;20096;-79
2023/12/04 03:58:44;;;;;;;5.47;2.05;;;6.30;99.90;;;;;;6255053;28;20420;-80
2023/12/04 04:01:46;;;;;;;5.50;1.50;;;6.30;99.90;;;;;;6267392;28;20594;-81
2023/12/04 04:04:47;;;;;;;6.20;1.92;;;6.30;99.90;;;;;;6243978;28;20077;-81
2023/12/04 04:07:49;;;;;;;8.05;1.95;;;6.30;99.90;;;;;;6255636;28;20053;-81
2023/12/04 04:10:50;;;;;;;9.73;2.15;;;6.30;99.90;;;;;;6247931;28;20054;-81
2023/12/04 04:13:52;;;;;;;6.72;1.80;;;6.30;99.90;;;;;;6267092;28;20045;-81
2023/12/04 04:16:54;;;;;;;6.85;1.88;;;6.40;99.90;;;;;;6249296;28;20065;-81
2023/12/04 04:19:55;;;;;;;6.90;2.20;;;6.30;99.90;;;;;;6253823;28;20050;-81
2023/12/04 04:22:57;;;;;;;9.15;2.03;;;6.40;99.90;;;;;;6271716;28;20053;-81
2023/12/04 04:25:59;;;;;;;7.40;1.98;;;6.40;99.90;;;;;;6248714;28;20050;-80
2023/12/04 04:29:00;;;;;;;5.30;1.70;;;6.30;99.90;;;;;;6255863;28;20064;-81
2023/12/04 04:32:02;;;;;;;6.03;2.00;;;6.40;99.90;;;;;;6271873;28;20049;-81
2023/12/04 04:35:03;;;;;;;7.05;2.10;;;6.40;99.90;;;;;;6246846;28;20413;-80
2023/12/04 04:38:05;;;;;;;5.93;2.13;;;6.40;99.90;;;;;;6265233;28;20715;-81
2023/12/04 04:41:07;;;;;;;7.65;2.25;;;6.30;99.90;;;;;;6272050;28;20056;-80
2023/12/04 04:44:08;;;;;;;8.43;2.42;;;6.30;99.90;;;;;;6260513;28;20416;-81
2023/12/04 04:47:10;;;;;;;7.25;2.30;;;6.30;99.90;;;;;;6247058;28;20054;-80
2023/12/04 04:50:12;;;;;;;8.02;2.13;;;6.30;99.90;;;;;;6222783;28;20516;-81
2023/12/04 04:53:13;;;;;;;7.57;2.10;;;6.30;99.90;;;;;;6270113;28;20734;-81
2023/12/04 04:56:15;;;;;;;5.53;2.35;;;6.40;99.90;;;;;;6257671;28;20060;-81
2023/12/04 04:59:17;;;;;;;3.58;1.90;;;6.30;99.90;;;;;;6252888;28;20057;-81
2023/12/04 05:02:18;;;;;;;6.95;2.22;;;6.30;99.90;;;;;;6223020;28;20050;-81
2023/12/04 05:05:20;;;;;;;8.20;2.50;;;6.20;99.90;;;;;;6264060;28;20061;-83
2023/12/04 05:08:22;;;;;;;7.05;2.30;;;6.20;99.90;;;;;;6238064;28;20053;-82
2023/12/04 05:11:23;;;;;;;6.03;2.08;;;6.20;99.90;;;;;;6252479;28;20053;-82
2023/12/04 05:14:26;;;;;;;7.82;2.38;;;6.20;99.90;;;;;;6269979;28;20045;-82
2023/12/04 05:17:28;;;;;;;9.15;2.80;;;6.20;99.90;;;;;;6243237;28;20667;-82
2023/12/04 05:20:30;;;;;;;6.20;2.10;;;6.20;99.90;;;;;;6269490;28;20060;-82
2023/12/04 05:23:31;;;;;;;7.32;2.10;;;6.20;99.90;;;;;;6247448;28;20049;-80
2023/12/04 05:26:33;;;;;;;8.77;2.67;;;6.30;99.90;;;;;;6269809;28;20048;-82
2023/12/04 05:29:34;;;;;;;6.15;1.92;;;6.20;99.90;;;;;;6223431;28;20129;-81
2023/12/04 05:32:36;;;;;;;5.18;2.10;;;6.20;99.90;;;;;;6268874;28;20408;-80
2023/12/04 05:35:38;;;;;;;6.55;2.13;;;6.20;99.90;;;;;;6246042;28;20580;-81
2023/12/04 05:38:39;;;;;;;6.47;2.35;;;6.20;99.90;;;;;;6260161;28;20137;-81
2023/12/04 05:41:41;;;;;;;7.18;2.05;;;6.30;99.90;;;;;;6243435;28;20060;-81
2023/12/04 05:44:42;;;;;;;5.63;1.90;;;6.30;99.90;;;;;;6265128;28;20064;-82
2023/12/04 05:47:44;;;;;;;7.63;1.90;;;6.30;99.90;;;;;;6246921;28;20049;-82
2023/12/04 05:50:46;;;;;;;4.45;1.75;;;6.30;99.90;;;;;;6271432;28;20068;-83
2023/12/04 05:53:47;;;;;;;7.35;2.00;;;6.30;99.90;;;;;;6246807;28;20056;-81
2023/12/04 05:56:49;;;;;;;6.95;2.00;;;6.30;99.90;;;;;;6258270;28;20053;-83
2023/12/04 05:59:51;;;;;;;4.95;1.67;;;6.30;99.90;;;;;;6225057;28;20077;-81
2023/12/04 06:02:52;;;;;;;7.95;1.70;;;6.30;99.90;;;;;;6268202;28;20207;-82
2023/12/04 06:05:54;;;;;;;5.43;1.80;;;6.30;99.90;;;;;;6252203;28;20126;-82
2023/12/04 06:08:59;;;;;;;4.47;1.70;;;6.30;99.90;;;;;;6270879;28;20056;-82
2023/12/04 06:12:07;;;;;;;4.68;1.55;;;6.30;99.90;;;;;;6230427;28;20062;-82
2023/12/04 06:15:09;;;;;;;5.03;1.60;;;6.30;99.90;;;;;;6242490;28;20140;-82
2023/12/04 06:18:11;;;;;;;4.82;1.60;;;6.30;99.90;;;;;;6249103;28;20065;-82
2023/12/04 06:21:12;;;;;;;6.63;1.60;;;6.30;99.90;;;;;;6270465;28;20057;-82
2023/12/04 06:24:14;;;;;;;7.65;2.05;;;6.40;99.90;;;;;;6246334;28;20053;-82
2023/12/04 06:27:16;;;;;;;6.30;1.83;;;6.40;99.90;;;;;;6233737;28;20080;-82
2023/12/04 06:30:17;;;;;;;4.20;1.50;;;6.30;99.90;;;;;;6266519;28;20139;-83
2023/12/04 06:33:20;;;;;;;4.85;1.55;;;6.40;99.90;;;;;;6219790;28;20054;-82
2023/12/04 06:36:21;;;;;;;5.65;1.63;;;6.40;99.90;;;;;;6248067;28;20058;-81
2023/12/04 06:39:23;;;;;;;4.47;1.60;;;6.40;99.90;;;;;;6268080;28;20052;-82
2023/12/04 06:42:24;;;;;;;4.63;1.48;;;6.40;99.90;;;;;;6245989;28;20049;-82
2023/12/04 06:45:27;;;;;;;4.82;1.67;;;6.30;99.90;;;;;;6264126;28;20049;-82
2023/12/04 06:48:28;;;;;;;4.88;1.67;;;6.30;99.90;;;;;;6221410;28;20049;-82
2023/12/04 06:51:30;;;;;;;4.35;1.77;;;6.30;99.90;;;;;;6269182;28;20056;-82
2023/12/04 06:54:32;;;;;;;7.07;2.10;;;6.30;99.90;;;;;;6244261;28;20065;-83
2023/12/04 06:57:33;;;;;;;3.65;1.75;;;6.30;99.90;;;;;;6265918;28;20173;-83
2023/12/04 07:00:35;;;;;;;5.20;1.92;;;6.40;99.90;;;;;;6243811;28;20041;-82
2023/12/04 07:03:38;;;;;;;5.15;1.65;;;6.30;99.90;;;;;;6220234;28;20050;-84
2023/12/04 07:06:39;;;;;;;4.85;1.90;;;6.30;99.90;;;;;;6250111;28;20152;-81
2023/12/04 07:09:41;;;;;;;5.45;1.92;;;6.30;99.90;;;;;;6269368;28;20092;-83
2023/12/04 07:12:42;;;;;;;5.45;1.92;;;6.30;99.90;;;;;;6247966;28;20041;-83
2023/12/04 07:15:44;;;;;;;5.32;1.90;;;6.40;99.90;;;;;;6269692;28;20160;-82
2023/12/04 07:18:46;;;;;;;4.53;1.88;;;6.30;99.90;;;;;;6220721;28;20382;-82
2023/12/04 07:21:48;;;;;;;5.72;1.90;;;6.40;99.90;;;;;;6268333;28;20060;-83
2023/12/04 07:24:49;;;;;;;4.80;2.03;;;6.40;99.90;;;;;;6244168;28;20056;-82
2023/12/04 07:27:51;;;;;;;5.40;2.00;;;6.40;99.90;;;;;;6259686;28;20050;-85
2023/12/04 07:30:53;;;;;;;6.25;1.92;;;6.40;99.90;;;;;;6241254;28;20056;-82
2023/12/04 07:33:54;;;;;;;7.53;2.03;;;6.40;99.90;;;;;;6243114;28;20061;-84
2023/12/04 07:36:56;;;;;;;8.55;2.70;;;6.50;99.90;;;;;;6268514;28;20063;-84
2023/12/04 07:39:58;;;;;;;6.75;2.35;;;6.40;99.90;;;;;;6244343;28;20060;-84
2023/12/04 07:43:00;;;;;;;6.20;2.53;;;6.50;99.90;;;;;;6259475;28;20497;-83
2023/12/04 07:46:01;;;;;;;5.93;2.17;;;6.40;99.90;;;;;;6245040;28;20091;-82
2023/12/04 07:49:03;;;;;;;8.02;2.53;;;6.50;99.90;;;;;;6268481;28;20052;-83
2023/12/04 07:52:05;;;;;;;7.93;2.38;;;6.50;99.90;;;;;;6245126;28;20057;-84
2023/12/04 07:55:07;;;;;;;4.88;2.40;;;6.50;99.90;;;;;;6265653;28;20069;-83
2023/12/04 07:58:09;;;;;;;7.82;2.78;;;6.50;99.90;;;;;;6246906;28;20056;-83
2023/12/04 08:01:11;;;;;;;5.88;2.63;;;6.50;99.90;;;;;;6252175;28;20057;-85
2023/12/04 08:04:13;;;;;;;7.07;2.53;;;6.50;99.90;;;;;;6269751;28;20105;-84
2023/12/04 08:07:14;;;;;;;8.70;2.67;;;6.50;99.90;;;;;;6245281;28;20049;-83
2023/12/04 08:10:16;;;;;;;8.35;2.40;;;6.50;99.90;;;;;;6250677;28;20054;-83
2023/12/04 08:13:21;;;;;;;6.10;2.45;;;6.50;99.90;;;;;;6257156;28;20676;-84
2023/12/04 08:16:23;;;;;;;6.68;2.35;;;6.60;99.90;;;;;;6270394;28;20053;-83
2023/12/04 08:19:25;;;;;;;5.55;2.28;;;6.50;99.90;;;;;;6245766;28;20049;-84
2023/12/04 08:22:27;;;;;;;10.10;2.70;;;6.50;99.90;;;;;;6267821;28;20056;-84
2023/12/04 08:25:28;;;;;;;5.85;2.40;;;6.60;99.90;;;;;;6228855;28;20054;-84
2023/12/04 08:28:30;;;;;;;6.30;2.22;;;6.60;99.90;;;;;;6255782;28;20515;-84
2023/12/04 08:31:32;;;;;;;6.30;2.15;;;6.70;99.90;;;;;;6236702;28;20512;-84
2023/12/04 08:34:34;;;;;;;5.40;2.17;;;6.70;99.90;;;;;;6251820;28;20049;-85
2023/12/04 08:37:37;;;;;;;4.93;2.08;;;6.70;99.90;;;;;;6246385;28;20049;-83
2023/12/04 08:40:39;;;;;;;5.43;2.22;;;6.80;99.90;;;;;;6270192;28;20056;-85
2023/12/04 08:43:41;;;;;;;5.97;2.10;;;6.80;99.90;;;;;;6259585;28;20400;-88
2023/12/04 08:46:43;;;;;;;7.03;2.10;;;6.90;99.90;;;;;;6250457;28;20164;-89
2023/12/04 08:49:45;;;;;;;4.78;1.98;;;6.90;99.90;;;;;;6253287;28;20057;-88
2023/12/04 08:52:50;;;;;;;5.43;1.90;;;7.00;99.90;;;;;;6274726;28;20727;-90
2023/12/04 08:55:52;;;;;;;4.20;1.85;;;7.00;99.90;;;;;;6264083;28;20057;-88
2023/12/04 08:58:54;;;;;;;4.82;1.77;;;7.00;99.90;;;;;;6261800;28;20048;-84
2023/12/04 09:01:56;;;;;;;6.80;2.47;;;7.00;99.90;;;;;;6252675;28;20049;-86
2023/12/04 09:04:58;;;;;;;7.65;2.10;;;6.90;99.90;;;;;;6274653;28;20053;-80
2023/12/04 09:08:01;;;;;;;4.57;1.90;;;6.90;99.90;;;;;;6246745;28;20084;-80
2023/12/04 09:11:23;;;;;;;4.72;2.05;;;6.90;99.90;;;;;;6246406;28;20144;-80
2023/12/04 09:14:27;;;;;;;5.75;1.90;;;6.90;99.90;;;;;;6259505;28;20046;-79
2023/12/04 09:17:30;;;;;;;5.20;2.00;;;6.90;99.90;;;;;;6237888;28;20057;-82
2023/12/04 09:20:40;;;;;;;6.45;1.92;;;6.90;99.90;;;;;;6237910;28;20053;-78
2023/12/04 09:23:42;;;;;;;5.70;1.95;;;7.00;99.90;;;;;;6231220;28;20058;-78
2023/12/04 09:26:43;;;;;;;4.78;2.00;;;7.00;99.90;;;;;;6270575;28;20052;-80
2023/12/04 09:29:45;;;;;;;4.80;1.92;;;7.10;99.90;;;;;;6242030;28;20408;-81
2023/12/04 09:32:47;;;;;;;7.30;2.00;;;7.10;99.90;;;;;;6246250;28;20056;-80
2023/12/04 09:35:48;;;;;;;3.58;1.65;;;7.10;99.90;;;;;;6243683;28;20453;-82
2023/12/04 09:38:50;;;;;;;5.68;1.83;;;7.10;99.90;;;;;;6236399;28;20072;-82
2023/12/04 09:41:51;;;;;;;4.45;1.90;;;7.20;99.90;;;;;;6256875;28;20050;-83
2023/12/04 09:44:54;;;;;;;4.90;1.65;;;7.20;99.90;;;;;;6251796;28;20061;-83
2023/12/04 09:47:55;;;;;;;3.53;1.42;;;7.30;99.90;;;;;;6234679;28;20049;-85
2023/12/04 09:50:57;;;;;;;5.05;1.88;;;7.30;99.90;;;;;;6272416;28;20065;-85
2023/12/04 09:54:00;;;;;;;6.47;2.10;;;7.30;99.90;;;;;;6250772;28;20049;-86
2023/12/04 09:57:03;;;;;;;6.85;1.75;;;7.40;99.90;;;;;;6274938;28;20476;-85
2023/12/04 10:00:06;;;;;;;5.63;1.83;;;7.40;99.90;;;;;;6247312;28;20081;-81
2023/12/04 10:03:07;;;;;;;8.25;1.90;;;7.40;99.90;;;;;;6260886;28;20438;-87
2023/12/04 10:06:09;;;;;;;4.63;2.10;;;7.40;99.90;;;;;;6250207;28;20060;-86
2023/12/04 10:09:13;;;;;;;5.22;2.00;;;7.40;99.90;;;;;;6274659;28;20041;-84
2023/12/04 10:12:15;;;;;;;4.68;1.90;;;7.40;99.90;;;;;;6250529;28;20183;-89
2023/12/04 10:15:17;;;;;;;5.30;2.20;;;7.50;99.90;;;;;;6275412;28;20138;-86
2023/12/04 10:18:18;;;;;;;6.43;2.10;;;7.50;99.90;;;;;;6225550;28;20769;-86
2023/12/04 10:21:20;;;;;;;5.72;2.13;;;7.50;99.90;;;;;;6257710;28;20049;-87
2023/12/04 10:24:25;;;;;;;4.72;2.10;;;7.40;99.90;;;;;;6232515;28;20050;-92
2023/12/04 10:27:27;;;;;;;6.32;2.20;;;7.50;99.90;;;;;;6236691;28;20085;-87
2023/12/04 10:30:30;;;;;;;6.60;2.42;;;7.40;99.90;;;;;;6257505;28;20060;-90
2023/12/04 10:33:36;;;;;;;7.93;4.20;;;7.40;99.90;;;;;;6272232;28;20117;-88
2023/12/04 10:36:38;;;;;;;4.88;2.03;;;7.40;99.90;;;;;;6279589;28;20050;-91
2023/12/04 10:39:40;;;;;;;6.85;2.40;;;7.50;99.90;;;;;;6279327;28;20726;-87
2023/12/04 10:42:42;;;;;;;6.20;2.30;;;7.50;99.90;;;;;;6274689;28;20057;-87
2023/12/04 10:45:43;;;;;;;6.93;2.30;;;7.50;99.90;;;;;;6251511;28;20060;-85
2023/12/04 10:48:47;;;;;;;4.95;2.05;;;7.50;99.90;;;;;;6272987;28;20045;-87
2023/12/04 10:51:49;;;;;;;7.85;2.25;;;7.50;99.90;;;;;;6275620;28;20114;-90
2023/12/04 10:54:50;;;;;;;6.93;2.38;;;7.50;99.90;;;;;;6260830;28;20065;-86
2023/12/04 10:57:52;;;;;;;7.18;2.38;;;7.50;99.90;;;;;;6249937;28;20048;-87
2023/12/04 11:00:54;;;;;;;13.05;2.75;;;7.50;99.90;;;;;;6249964;28;20054;-86
2023/12/04 11:03:55;;;;;;;7.40;2.65;;;7.60;99.90;;;;;;6255536;28;20083;-87
2023/12/04 11:06:57;;;;;;;8.70;2.55;;;7.70;99.90;;;;;;6274128;28;20057;-84
2023/12/04 11:09:59;;;;;;;7.65;2.58;;;7.70;99.90;;;;;;6238888;28;20049;-85
2023/12/04 11:13:02;;;;;;;8.60;2.97;;;7.80;99.90;;;;;;6263893;28;20053;-85
2023/12/04 11:16:03;;;;;;;11.02;2.38;;;7.80;99.90;;;;;;6241808;28;20052;-84
2023/12/04 11:19:05;;;;;;;8.68;2.72;;;7.80;99.90;;;;;;6269927;28;20075;-89
2023/12/04 11:22:07;;;;;;;6.82;2.70;;;7.90;99.90;;;;;;6265072;28;20053;-86
2023/12/04 11:25:09;;;;;;;9.20;2.60;;;7.80;99.90;;;;;;6221451;28;20069;-86
2023/12/04 11:28:10;;;;;;;7.15;2.50;;;7.90;99.90;;;;;;6276512;28;20048;-82
2023/12/04 11:31:12;;;;;;;7.47;2.50;;;7.90;99.90;;;;;;6268085;28;20049;-86
2023/12/04 11:34:14;;;;;;;8.23;2.53;;;8.10;99.90;;;;;;6273269;28;20056;-92
2023/12/04 11:37:15;;;;;;;9.93;2.38;;;8.10;99.90;;;;;;6225230;28;20054;-90
2023/12/04 11:40:17;;;;;;;4.63;2.13;;;8.20;99.90;;;;;;6240589;28;20042;-89
2023/12/04 11:43:19;;;;;;;8.85;2.10;;;8.20;99.90;;;;;;6245082;28;20484;-89
2023/12/04 11:46:22;;;;;;;7.97;2.20;;;8.20;99.90;;;;;;6270260;28;20458;-83
2023/12/04 11:49:25;;;;;;;6.60;2.30;;;8.20;99.90;;;;;;6248074;28;20065;-86
2023/12/04 11:52:27;;;;;;;6.93;2.22;;;8.20;99.90;;;;;;6272763;28;20140;-89
2023/12/04 11:55:29;;;;;;;6.75;2.33;;;8.20;99.90;;;;;;6246645;28;20040;-87
2023/12/04 11:58:32;;;;;;;6.13;2.30;;;8.20;99.90;;;;;;6242625;28;20061;-84
2023/12/04 12:01:34;;;;;;;6.95;2.08;;;8.30;99.90;;;;;;6250813;28;20639;-88
2023/12/04 12:04:39;;;;;;;6.30;2.28;;;8.20;99.90;;;;;;6243944;28;20081;-79
2023/12/04 12:07:41;;;;;;;11.75;2.85;;;8.20;99.90;;;;;;6235588;28;20611;-83
2023/12/04 12:10:44;;;;;;;7.97;2.25;;;8.20;99.90;;;;;;6284519;28;20060;-83
2023/12/04 12:13:45;;;;;;;5.35;2.30;;;8.30;99.90;;;;;;6247637;28;20061;-85
2023/12/04 12:16:47;;;;;;;5.90;2.30;;;8.20;99.90;;;;;;6245559;28;20049;-84
2023/12/04 12:19:49;;;;;;;8.57;2.08;;;8.20;99.90;;;;;;6243439;28;20057;-83
2023/12/04 12:22:50;;;;;;;6.32;2.47;;;8.30;99.90;;;;;;6243656;28;20124;-82
2023/12/04 12:25:52;;;;;;;8.35;2.63;;;8.20;99.90;;;;;;6248309;28;20056;-84
2023/12/04 12:28:54;;;;;;;9.13;2.63;;;8.20;99.90;;;;;;6255178;28;20512;-82
2023/12/04 12:31:56;;;;;;;11.50;3.05;;;8.20;99.90;;;;;;6260632;28;20050;-82
2023/12/04 12:34:58;;;;;;;10.77;3.10;;;8.20;99.90;;;;;;6238092;28;20486;-85
2023/12/04 12:37:59;;;;;;;8.77;3.20;;;8.10;99.90;;;;;;6234250;28;20049;-87
2023/12/04 12:41:01;;;;;;;10.75;2.85;;;8.10;99.90;;;;;;6234314;28;20050;-84
2023/12/04 12:44:03;;;;;;;7.40;2.50;;;8.10;99.90;;;;;;6250106;28;20046;-82
2023/12/04 12:47:05;;;;;;;6.30;2.42;;;8.10;99.90;;;;;;6271463;28;20049;-82
2023/12/04 12:50:06;;;;;;;10.13;2.60;;;8.20;99.90;;;;;;6234661;28;20058;-83
2023/12/04 12:53:08;;;;;;;6.93;2.60;;;8.20;99.90;;;;;;6250427;28;20111;-82
2023/12/04 12:56:10;;;;;;;11.07;2.88;;;8.20;99.90;;;;;;6241775;28;20072;-82
2023/12/04 12:59:11;;;;;;;8.52;2.50;;;8.10;99.90;;;;;;6256240;28;20056;-81
2023/12/04 13:02:14;;;;;;;9.07;2.88;;;8.10;99.90;;;;;;6258111;28;20412;-81
2023/12/04 13:05:17;;;;;;;6.82;2.80;;;8.10;99.90;;;;;;6252653;28;20734;-81
2023/12/04 13:08:19;;;;;;;6.50;2.40;;;8.10;99.90;;;;;;6259386;28;20091;-82
2023/12/04 13:11:21;;;;;;;6.03;2.65;;;8.10;99.90;;;;;;6272632;28;20061;-80
2023/12/04 13:14:22;;;;;;;7.18;2.70;;;8.10;99.90;;;;;;6239375;28;20053;-82
2023/12/04 13:17:24;;;;;;;9.95;2.85;;;8.10;99.90;;;;;;6247186;28;20515;-82
2023/12/04 13:20:26;;;;;;;6.78;2.60;;;8.10;99.90;;;;;;6228651;28;20054;-81
2023/12/04 13:23:27;;;;;;;8.13;2.50;;;8.10;99.90;;;;;;6264550;28;20054;-81
2023/12/04 13:26:29;;;;;;;7.75;2.35;;;8.10;99.90;;;;;;6244662;28;20079;-82
2023/12/04 13:29:31;;;;;;;5.28;2.33;;;8.00;99.90;;;;;;6270751;28;20045;-81
2023/12/04 13:32:33;;;;;;;7.80;2.50;;;8.00;99.90;;;;;;6236198;28;20057;-79
2023/12/04 13:35:35;;;;;;;6.38;2.60;;;8.10;99.90;;;;;;6227755;28;20053;-81
2023/12/04 13:38:37;;;;;;;5.55;2.15;;;8.10;99.90;;;;;;6268889;28;20056;-81
2023/12/04 13:44:59;;;;;;;6.80;2.20;;;8.10;99.90;;;;;;6224144;28;20195;-80
2023/12/04 13:48:01;;;;;;;8.52;2.50;;;8.20;99.90;;;;;;6248429;28;20049;-79
2023/12/04 13:51:02;;;;;;;8.23;2.40;;;8.20;99.90;;;;;;6263134;28;20052;-82
2023/12/04 13:54:16;;;;;;;7.82;2.30;;;8.20;99.90;;;;;;6240945;28;20144;-84
2023/12/04 13:57:21;;;;;;;7.40;2.22;;;8.20;99.90;;;;;;6245017;28;20092;-84
2023/12/04 14:00:23;;;;;;;6.18;2.40;;;8.10;99.90;;;;;;6249466;28;20126;-84
2023/12/04 14:03:25;;;;;;;5.90;2.33;;;8.10;99.90;;;;;;6221485;28;20053;-83
2023/12/04 14:06:27;;;;;;;6.35;2.40;;;8.20;99.90;;;;;;6270513;28;20049;-84
2023/12/04 14:09:29;;;;;;;9.68;2.65;;;8.10;99.90;;;;;;6244640;28;20061;-83
2023/12/04 14:12:31;;;;;;;9.55;3.10;;;8.10;99.90;;;;;;6242902;28;20131;-85
2023/12/04 14:15:33;;;;;;;7.57;3.00;;;8.20;99.90;;;;;;6245638;28;20053;-86
2023/12/04 14:18:35;;;;;;;9.20;3.65;;;8.20;99.90;;;;;;6242831;28;20050;-85
2023/12/04 14:21:36;;;;;;;9.40;4.18;;;8.10;99.90;;;;;;6260853;28;20072;-83
2023/12/04 14:24:38;;;;;;;8.20;4.05;;;8.10;99.90;;;;;;6244969;28;20057;-82
2023/12/04 14:27:40;;;;;;;9.30;4.07;;;8.00;99.90;;;;;;6231277;28;20045;-84
2023/12/04 14:30:42;;;;;;;11.68;4.55;;;7.90;99.90;;;;;;6238767;28;20079;-88
2023/12/04 14:33:43;;;;;;;9.50;4.20;;;7.80;99.90;;;;;;6268462;28;20056;-84
2023/12/04 14:36:45;;;;;;;11.60;4.43;;;7.70;99.90;;;;;;6269500;28;20575;-84
2023/12/04 14:39:47;;;;;;;11.32;4.75;;;7.70;99.90;;;;;;6231122;28;20052;-83
2023/12/04 14:42:49;;;;;;;11.07;4.65;;;7.70;99.90;;;;;;6247686;28;20521;-85
2023/12/04 14:45:50;;;;;;;9.43;4.30;;;7.70;99.90;;;;;;6269037;28;20137;-83
2023/12/04 14:48:52;;;;;;;9.63;4.00;;;7.70;99.90;;;;;;6246374;28;20057;-84
2023/12/04 14:51:56;;;;;;;10.65;3.50;;;7.60;99.90;;;;;;6270243;28;20056;-83
2023/12/04 14:55:58;;;;;;;8.48;3.55;;;7.50;99.90;;;;;;6247789;28;20126;-81
2023/12/04 15:02:37;;;;;;;9.80;4.60;;;7.40;99.90;;;;;;6245627;28;20140;-82
2023/12/04 15:12:17;;;;;;;8.73;4.63;;;7.30;99.90;;;;;;6220972;28;20129;-83
2023/12/04 15:21:31;;;;;;;9.05;4.70;;;7.30;99.90;;;;;;6249832;28;20567;-86
2023/12/04 15:24:33;;;;;;;12.20;5.35;;;7.40;99.90;;;;;;6288952;28;20100;-86
2023/12/04 15:27:35;;;;;;;10.48;5.15;;;7.40;99.90;;;;;;6265562;28;20061;-84
2023/12/04 15:30:38;;;;;;;11.45;5.57;;;7.40;99.90;;;;;;6223157;28;20049;-86
2023/12/04 15:33:40;;;;;;;12.93;5.97;;;7.30;99.90;;;;;;6270387;28;20072;-85
2023/12/04 15:36:42;;;;;;;19.63;5.65;;;7.20;99.90;;;;;;6246947;28;20053;-84
2023/12/04 15:39:43;;;;;;;13.52;6.18;;;7.20;99.90;;;;;;6267585;28;20049;-86
2023/12/04 15:42:45;;;;;;;11.80;5.72;;;7.20;99.90;;;;;;6243980;28;20045;-84
2023/12/04 15:45:47;;;;;;;13.23;6.28;;;7.10;99.90;;;;;;6269203;28;20057;-86
2023/12/04 15:48:48;;;;;;;10.68;5.97;;;7.10;99.90;;;;;;6234715;28;20057;-84
2023/12/04 15:51:53;;;;;;;15.57;6.18;;;7.00;99.90;;;;;;6242990;28;20061;-83
2023/12/04 15:54:55;;;;;;;10.27;6.28;;;7.00;99.90;;;;;;6219937;28;20053;-84
2023/12/04 15:57:57;;;;;;;13.60;6.68;;;7.00;99.90;;;;;;6261333;28;20104;-84
2023/12/04 16:00:58;;;;;;;14.13;6.68;;;6.90;99.90;;;;;;6243112;28;20049;-86
2023/12/04 16:04:00;;;;;;;13.77;6.53;;;6.90;99.90;;;;;;6243433;28;20103;-84
2023/12/04 16:07:02;;;;;;;13.80;6.63;;;6.90;99.90;;;;;;6220944;28;20179;-85
2023/12/04 16:10:04;;;;;;;10.18;6.20;;;6.90;99.90;;;;;;6244028;28;20096;-85
2023/12/04 16:13:05;;;;;;;13.45;6.30;;;6.90;99.90;;;;;;6234172;28;20508;-81
2023/12/04 16:16:07;;;;;;;14.80;7.15;;;6.80;99.90;;;;;;6268909;28;20084;-86
2023/12/04 16:19:10;;;;;;;12.50;6.45;;;6.80;99.90;;;;;;6249923;28;20060;-91